PWSweather.com
Personal Weather Stations
Station Observations
IMAZOWIE6
WarszawaPL

WarszawaPL

Lat: 52.27957, Lon: 21.05489

Elevation: 100

Station Type: WS1080

http://stacjapogody.waw.pl/

High Low Average
Temperature 30.4°F-0.9°C 18.1°F-7.7°C 24.1°F-4.4°C
Dew Point 1.6°F-16.9°C -16.4°F-26.9°C -9.4°F-23.0°C
Winds 1.4 mph 2.3 kmh Calm Calm Calm NCalm N
Wind Gusts 4.0 mph6.4 kmh -- 1.0 mph1.6 kmh
Humidity 30% 14% 23%
Pressure 30.32 in1026.8 mb 30.24 in1024.0 mb -
Precipitation 0.00 in0.0 mm - -
Hour Temp Dew Point Humidity Winds Wind Gusts Pressure Precip Precip Rate Daily Precip Total
12:05 AM 19.8°F-6.8°C -9.0°F-22.8°C 27% Calm Calm 0.6 mph1.0 kmh 30.24 in1024.0 mb 0.00 in0.0 mm 0.00 in0.0 mm 0.00 in0.0 mm
12:20 AM 19.8°F-6.8°C -9.0°F-22.8°C 27% Calm Calm -- 30.25 in1024.4 mb 0.00 in0.0 mm 0.00 in0.0 mm 0.00 in0.0 mm
12:35 AM 19.4°F-7.0°C -9.3°F-22.9°C 27% Calm Calm -- 30.25 in1024.4 mb 0.00 in0.0 mm 0.00 in0.0 mm 0.00 in0.0 mm
12:50 AM 19.0°F-7.2°C -9.6°F-23.1°C 27% Calm Calm -- 30.25 in1024.4 mb 0.00 in0.0 mm 0.00 in0.0 mm 0.00 in0.0 mm
01:05 AM 19.0°F-7.2°C -9.6°F-23.1°C 27% Calm Calm -- 30.25 in1024.4 mb 0.00 in0.0 mm 0.00 in0.0 mm 0.00 in0.0 mm
01:20 AM 18.7°F-7.4°C -9.9°F-23.3°C 27% Calm Calm -- 30.26 in1024.7 mb 0.00 in0.0 mm 0.00 in0.0 mm 0.00 in0.0 mm
01:35 AM 18.5°F-7.5°C -10.1°F-23.4°C 27% Calm Calm -- 30.26 in1024.7 mb 0.00 in0.0 mm 0.00 in0.0 mm 0.00 in0.0 mm
01:50 AM 18.1°F-7.7°C -10.4°F-23.6°C 27% Calm Calm -- 30.26 in1024.7 mb 0.00 in0.0 mm 0.00 in0.0 mm 0.00 in0.0 mm
02:05 AM 18.7°F-7.4°C -9.9°F-23.3°C 27% Calm Calm -- 30.27 in1025.1 mb 0.00 in0.0 mm 0.00 in0.0 mm 0.00 in0.0 mm
02:20 AM 19.4°F-7.0°C -8.6°F-22.6°C 28% Calm Calm -- 30.27 in1025.1 mb 0.00 in0.0 mm 0.00 in0.0 mm 0.00 in0.0 mm
02:35 AM 19.4°F-7.0°C -8.6°F-22.6°C 28% Calm Calm -- 30.26 in1024.7 mb 0.00 in0.0 mm 0.00 in0.0 mm 0.00 in0.0 mm
02:50 AM 19.8°F-6.8°C -8.3°F-22.4°C 28% Calm Calm 0.6 mph1.0 kmh 30.26 in1024.7 mb 0.00 in0.0 mm 0.00 in0.0 mm 0.00 in0.0 mm
03:05 AM 20.1°F-6.6°C -8.0°F-22.2°C 28% Calm Calm 0.6 mph1.0 kmh 30.26 in1024.7 mb 0.00 in0.0 mm 0.00 in0.0 mm 0.00 in0.0 mm
03:20 AM 20.5°F-6.4°C -7.7°F-22.1°C 28% Calm Calm -- 30.26 in1024.7 mb 0.00 in0.0 mm 0.00 in0.0 mm 0.00 in0.0 mm
03:35 AM 20.7°F-6.3°C -7.5°F-21.9°C 28% Calm Calm -- 30.26 in1024.7 mb 0.00 in0.0 mm 0.00 in0.0 mm 0.00 in0.0 mm
03:50 AM 20.5°F-6.4°C -7.7°F-22.1°C 28% Calm Calm -- 30.26 in1024.7 mb 0.00 in0.0 mm 0.00 in0.0 mm 0.00 in0.0 mm
04:05 AM 20.3°F-6.5°C -7.8°F-22.1°C 28% Calm Calm -- 30.27 in1025.1 mb 0.00 in0.0 mm 0.00 in0.0 mm 0.00 in0.0 mm
04:20 AM 19.9°F-6.7°C -8.1°F-22.3°C 28% Calm Calm -- 30.27 in1025.1 mb 0.00 in0.0 mm 0.00 in0.0 mm 0.00 in0.0 mm
04:35 AM 19.8°F-6.8°C -8.3°F-22.4°C 28% Calm Calm -- 30.27 in1025.1 mb 0.00 in0.0 mm 0.00 in0.0 mm 0.00 in0.0 mm
04:50 AM 19.6°F-6.9°C -9.2°F-22.9°C 27% Calm Calm -- 30.26 in1024.7 mb 0.00 in0.0 mm 0.00 in0.0 mm 0.00 in0.0 mm
05:05 AM 19.6°F-6.9°C -8.4°F-22.4°C 28% Calm Calm -- 30.26 in1024.7 mb 0.00 in0.0 mm 0.00 in0.0 mm 0.00 in0.0 mm
05:20 AM 19.0°F-7.2°C -9.6°F-23.1°C 27% Calm Calm -- 30.26 in1024.7 mb 0.00 in0.0 mm 0.00 in0.0 mm 0.00 in0.0 mm
05:35 AM 18.9°F-7.3°C -9.8°F-23.2°C 27% Calm Calm -- 30.27 in1025.1 mb 0.00 in0.0 mm 0.00 in0.0 mm 0.00 in0.0 mm
05:50 AM 18.7°F-7.4°C -9.9°F-23.3°C 27% Calm Calm -- 30.27 in1025.1 mb 0.00 in0.0 mm 0.00 in0.0 mm 0.00 in0.0 mm
06:05 AM 18.5°F-7.5°C -10.1°F-23.4°C 27% Calm Calm -- 30.27 in1025.1 mb 0.00 in0.0 mm 0.00 in0.0 mm 0.00 in0.0 mm
06:20 AM 19.0°F-7.2°C -9.6°F-23.1°C 27% Calm Calm -- 30.28 in1025.4 mb 0.00 in0.0 mm 0.00 in0.0 mm 0.00 in0.0 mm
06:35 AM 19.0°F-7.2°C -9.6°F-23.1°C 27% Calm Calm -- 30.28 in1025.4 mb 0.00 in0.0 mm 0.00 in0.0 mm 0.00 in0.0 mm
06:50 AM 19.2°F-7.1°C -8.7°F-22.6°C 28% Calm Calm -- 30.28 in1025.4 mb 0.00 in0.0 mm 0.00 in0.0 mm 0.00 in0.0 mm
07:05 AM 19.8°F-6.8°C -8.3°F-22.4°C 28% Calm Calm -- 30.29 in1025.7 mb 0.00 in0.0 mm 0.00 in0.0 mm 0.00 in0.0 mm
07:20 AM 19.8°F-6.8°C -8.3°F-22.4°C 28% Calm Calm -- 30.29 in1025.7 mb 0.00 in0.0 mm 0.00 in0.0 mm 0.00 in0.0 mm
07:35 AM 19.8°F-6.8°C -8.3°F-22.4°C 28% Calm Calm 0.6 mph1.0 kmh 30.29 in1025.7 mb 0.00 in0.0 mm 0.00 in0.0 mm 0.00 in0.0 mm
07:50 AM 20.1°F-6.6°C -8.0°F-22.2°C 28% Calm Calm -- 30.30 in1026.1 mb 0.00 in0.0 mm 0.00 in0.0 mm 0.00 in0.0 mm
08:05 AM 20.5°F-6.4°C -7.7°F-22.1°C 28% Calm Calm -- 30.30 in1026.1 mb 0.00 in0.0 mm 0.00 in0.0 mm 0.00 in0.0 mm
08:20 AM 21.4°F-5.9°C -6.9°F-21.6°C 28% Calm Calm 0.6 mph1.0 kmh 30.31 in1026.4 mb 0.00 in0.0 mm 0.00 in0.0 mm 0.00 in0.0 mm
08:35 AM 22.1°F-5.5°C -6.2°F-21.2°C 28% Calm Calm -- 30.31 in1026.4 mb 0.00 in0.0 mm 0.00 in0.0 mm 0.00 in0.0 mm
08:50 AM 23.7°F-4.6°C -4.1°F-20.1°C 29% Calm Calm -- 30.32 in1026.8 mb 0.00 in0.0 mm 0.00 in0.0 mm 0.00 in0.0 mm
09:05 AM 24.6°F-4.1°C -2.6°F-19.2°C 30% Calm Calm -- 30.32 in1026.8 mb 0.00 in0.0 mm 0.00 in0.0 mm 0.00 in0.0 mm
09:20 AM 25.2°F-3.8°C -2.1°F-18.9°C 30% Calm Calm -- 30.32 in1026.8 mb 0.00 in0.0 mm 0.00 in0.0 mm 0.00 in0.0 mm
09:35 AM 26.8°F-2.9°C -0.7°F-18.2°C 30% Calm Calm 0.6 mph1.0 kmh 30.32 in1026.8 mb 0.00 in0.0 mm 0.00 in0.0 mm 0.00 in0.0 mm
09:50 AM 27.0°F-2.8°C -0.6°F-18.1°C 30% Calm Calm -- 30.32 in1026.8 mb 0.00 in0.0 mm 0.00 in0.0 mm 0.00 in0.0 mm
10:05 AM 26.8°F-2.9°C -0.7°F-18.2°C 30% Calm Calm -- 30.32 in1026.8 mb 0.00 in0.0 mm 0.00 in0.0 mm 0.00 in0.0 mm
10:20 AM 27.7°F-2.4°C 0.1°F-17.7°C 30% Calm Calm -- 30.32 in1026.8 mb 0.00 in0.0 mm 0.00 in0.0 mm 0.00 in0.0 mm
10:35 AM 29.5°F-1.4°C 1.6°F-16.9°C 30% Calm Calm 0.6 mph1.0 kmh 30.32 in1026.8 mb 0.00 in0.0 mm 0.00 in0.0 mm 0.00 in0.0 mm
10:50 AM 29.3°F-1.5°C 0.7°F-17.4°C 29% Calm Calm 1.4 mph2.3 kmh 30.32 in1026.8 mb 0.00 in0.0 mm 0.00 in0.0 mm 0.00 in0.0 mm
11:05 AM 29.3°F-1.5°C 0.7°F-17.4°C 29% Calm Calm 1.4 mph2.3 kmh 30.32 in1026.8 mb 0.00 in0.0 mm 0.00 in0.0 mm 0.00 in0.0 mm
11:20 AM 28.8°F-1.8°C -1.2°F-18.4°C 27% Calm Calm 1.4 mph2.3 kmh 30.32 in1026.8 mb 0.00 in0.0 mm 0.00 in0.0 mm 0.00 in0.0 mm
11:35 AM 28.8°F-1.8°C -1.2°F-18.4°C 27% 0.6 mph N1.0 kmh N 2.0 mph3.2 kmh 30.31 in1026.4 mb 0.00 in0.0 mm 0.00 in0.0 mm 0.00 in0.0 mm
11:50 AM 28.9°F-1.7°C -1.9°F-18.8°C 26% 0.6 mph N1.0 kmh N 2.0 mph3.2 kmh 30.31 in1026.4 mb 0.00 in0.0 mm 0.00 in0.0 mm 0.00 in0.0 mm
12:05 PM 29.3°F-1.5°C -2.4°F-19.1°C 25% 0.6 mph N1.0 kmh N 3.4 mph5.5 kmh 30.31 in1026.4 mb 0.00 in0.0 mm 0.00 in0.0 mm 0.00 in0.0 mm
12:20 PM 29.7°F-1.3°C -2.9°F-19.4°C 24% 0.6 mph N1.0 kmh N 1.4 mph2.3 kmh 30.31 in1026.4 mb 0.00 in0.0 mm 0.00 in0.0 mm 0.00 in0.0 mm
12:35 PM 30.4°F-0.9°C -3.2°F-19.6°C 23% 0.6 mph N1.0 kmh N 1.4 mph2.3 kmh 30.31 in1026.4 mb 0.00 in0.0 mm 0.00 in0.0 mm 0.00 in0.0 mm
12:50 PM 30.4°F-0.9°C -4.1°F-20.1°C 22% Calm Calm 2.0 mph3.2 kmh 30.31 in1026.4 mb 0.00 in0.0 mm 0.00 in0.0 mm 0.00 in0.0 mm
01:05 PM 30.2°F-1.0°C -5.2°F-20.7°C 21% Calm Calm 0.6 mph1.0 kmh 30.30 in1026.1 mb 0.00 in0.0 mm 0.00 in0.0 mm 0.00 in0.0 mm
01:21 PM 30.2°F-1.0°C -6.2°F-21.2°C 20% 1.4 mph N2.3 kmh N 2.8 mph4.5 kmh 30.31 in1026.4 mb 0.00 in0.0 mm 0.00 in0.0 mm 0.00 in0.0 mm
01:32 PM 30.0°F-1.1°C -7.4°F-21.9°C 19% 0.6 mph N1.0 kmh N 1.4 mph2.3 kmh 30.31 in1026.4 mb 0.00 in0.0 mm 0.00 in0.0 mm 0.00 in0.0 mm
01:48 PM 30.2°F-1.0°C -8.4°F-22.4°C 18% Calm Calm 1.4 mph2.3 kmh 30.31 in1026.4 mb 0.00 in0.0 mm 0.00 in0.0 mm 0.00 in0.0 mm
02:04 PM 29.8°F-1.2°C -9.8°F-23.2°C 17% Calm Calm 0.6 mph1.0 kmh 30.31 in1026.4 mb 0.00 in0.0 mm 0.00 in0.0 mm 0.00 in0.0 mm
02:20 PM 29.1°F-1.6°C -11.6°F-24.2°C 16% 1.4 mph N2.3 kmh N 2.0 mph3.2 kmh 30.32 in1026.8 mb 0.00 in0.0 mm 0.00 in0.0 mm 0.00 in0.0 mm
02:36 PM 28.9°F-1.7°C -13.0°F-25.0°C 15% 0.6 mph N1.0 kmh N 2.0 mph3.2 kmh 30.32 in1026.8 mb 0.00 in0.0 mm 0.00 in0.0 mm 0.00 in0.0 mm
02:47 PM 28.9°F-1.7°C -13.0°F-25.0°C 15% Calm Calm 1.4 mph2.3 kmh 30.31 in1026.4 mb 0.00 in0.0 mm 0.00 in0.0 mm 0.00 in0.0 mm
03:03 PM 28.6°F-1.9°C -13.3°F-25.2°C 15% 0.6 mph N1.0 kmh N 2.0 mph3.2 kmh 30.31 in1026.4 mb 0.00 in0.0 mm 0.00 in0.0 mm 0.00 in0.0 mm
03:19 PM 28.0°F-2.2°C -15.1°F-26.2°C 14% Calm Calm -- 30.31 in1026.4 mb 0.00 in0.0 mm 0.00 in0.0 mm 0.00 in0.0 mm
03:35 PM 27.5°F-2.5°C -15.5°F-26.4°C 14% Calm Calm 2.8 mph4.5 kmh 30.31 in1026.4 mb 0.00 in0.0 mm 0.00 in0.0 mm 0.00 in0.0 mm
03:51 PM 27.0°F-2.8°C -16.0°F-26.7°C 14% Calm Calm 0.6 mph1.0 kmh 30.31 in1026.4 mb 0.00 in0.0 mm 0.00 in0.0 mm 0.00 in0.0 mm
04:07 PM 26.6°F-3.0°C -16.3°F-26.8°C 14% 0.6 mph N1.0 kmh N 2.0 mph3.2 kmh 30.31 in1026.4 mb 0.00 in0.0 mm 0.00 in0.0 mm 0.00 in0.0 mm
04:17 PM 26.4°F-3.1°C -16.4°F-26.9°C 14% 0.6 mph N1.0 kmh N 2.0 mph3.2 kmh 30.32 in1026.8 mb 0.00 in0.0 mm 0.00 in0.0 mm 0.00 in0.0 mm
04:33 PM 26.1°F-3.3°C -15.4°F-26.3°C 15% Calm Calm -- 30.31 in1026.4 mb 0.00 in0.0 mm 0.00 in0.0 mm 0.00 in0.0 mm
04:49 PM 25.7°F-3.5°C -15.7°F-26.5°C 15% Calm Calm 0.6 mph1.0 kmh 30.32 in1026.8 mb 0.00 in0.0 mm 0.00 in0.0 mm 0.00 in0.0 mm
05:05 PM 25.3°F-3.7°C -16.0°F-26.7°C 15% Calm Calm 1.4 mph2.3 kmh 30.32 in1026.8 mb 0.00 in0.0 mm 0.00 in0.0 mm 0.00 in0.0 mm
05:20 PM 25.5°F-3.6°C -14.6°F-25.9°C 16% Calm Calm -- 30.32 in1026.8 mb 0.00 in0.0 mm 0.00 in0.0 mm 0.00 in0.0 mm
05:36 PM 25.5°F-3.6°C -14.6°F-25.9°C 16% Calm Calm -- 30.32 in1026.8 mb 0.00 in0.0 mm 0.00 in0.0 mm 0.00 in0.0 mm
05:47 PM 25.5°F-3.6°C -13.4°F-25.2°C 17% Calm Calm 0.6 mph1.0 kmh 30.32 in1026.8 mb 0.00 in0.0 mm 0.00 in0.0 mm 0.00 in0.0 mm
06:02 PM 25.2°F-3.8°C -13.7°F-25.4°C 17% Calm Calm 0.6 mph1.0 kmh 30.32 in1026.8 mb 0.00 in0.0 mm 0.00 in0.0 mm 0.00 in0.0 mm
06:17 PM 25.3°F-3.7°C -13.5°F-25.3°C 17% Calm Calm 0.6 mph1.0 kmh 30.32 in1026.8 mb 0.00 in0.0 mm 0.00 in0.0 mm 0.00 in0.0 mm
06:32 PM 25.5°F-3.6°C -12.3°F-24.6°C 18% Calm Calm 0.6 mph1.0 kmh 30.32 in1026.8 mb 0.00 in0.0 mm 0.00 in0.0 mm 0.00 in0.0 mm
06:47 PM 25.5°F-3.6°C -12.3°F-24.6°C 18% Calm Calm -- 30.32 in1026.8 mb 0.00 in0.0 mm 0.00 in0.0 mm 0.00 in0.0 mm
07:02 PM 25.9°F-3.4°C -12.0°F-24.4°C 18% Calm Calm 2.0 mph3.2 kmh 30.32 in1026.8 mb 0.00 in0.0 mm 0.00 in0.0 mm 0.00 in0.0 mm
07:17 PM 25.7°F-3.5°C -12.1°F-24.5°C 18% Calm Calm 1.4 mph2.3 kmh 30.32 in1026.8 mb 0.00 in0.0 mm 0.00 in0.0 mm 0.00 in0.0 mm
07:32 PM 25.7°F-3.5°C -12.1°F-24.5°C 18% Calm Calm 1.4 mph2.3 kmh 30.32 in1026.8 mb 0.00 in0.0 mm 0.00 in0.0 mm 0.00 in0.0 mm
07:47 PM 25.7°F-3.5°C -12.1°F-24.5°C 18% Calm Calm 0.6 mph1.0 kmh 30.32 in1026.8 mb 0.00 in0.0 mm 0.00 in0.0 mm 0.00 in0.0 mm
08:02 PM 25.5°F-3.6°C -12.3°F-24.6°C 18% Calm Calm 0.6 mph1.0 kmh 30.32 in1026.8 mb 0.00 in0.0 mm 0.00 in0.0 mm 0.00 in0.0 mm
08:17 PM 25.3°F-3.7°C -12.4°F-24.7°C 18% Calm Calm 1.4 mph2.3 kmh 30.31 in1026.4 mb 0.00 in0.0 mm 0.00 in0.0 mm 0.00 in0.0 mm
08:32 PM 25.2°F-3.8°C -12.5°F-24.7°C 18% Calm Calm 0.6 mph1.0 kmh 30.31 in1026.4 mb 0.00 in0.0 mm 0.00 in0.0 mm 0.00 in0.0 mm
08:47 PM 25.2°F-3.8°C -12.5°F-24.7°C 18% Calm Calm 1.4 mph2.3 kmh 30.32 in1026.8 mb 0.00 in0.0 mm 0.00 in0.0 mm 0.00 in0.0 mm
09:02 PM 24.8°F-4.0°C -12.8°F-24.9°C 18% Calm Calm 0.6 mph1.0 kmh 30.31 in1026.4 mb 0.00 in0.0 mm 0.00 in0.0 mm 0.00 in0.0 mm
09:17 PM 24.6°F-4.1°C -13.0°F-25.0°C 18% Calm Calm 2.8 mph4.5 kmh 30.31 in1026.4 mb 0.00 in0.0 mm 0.00 in0.0 mm 0.00 in0.0 mm
09:32 PM 24.4°F-4.2°C -13.1°F-25.1°C 18% 0.6 mph N1.0 kmh N 2.8 mph4.5 kmh 30.32 in1026.8 mb 0.00 in0.0 mm 0.00 in0.0 mm 0.00 in0.0 mm
09:47 PM 24.6°F-4.1°C -13.0°F-25.0°C 18% Calm Calm 1.4 mph2.3 kmh 30.31 in1026.4 mb 0.00 in0.0 mm 0.00 in0.0 mm 0.00 in0.0 mm
10:02 PM 24.4°F-4.2°C -13.1°F-25.1°C 18% Calm Calm 1.4 mph2.3 kmh 30.31 in1026.4 mb 0.00 in0.0 mm 0.00 in0.0 mm 0.00 in0.0 mm
10:17 PM 24.3°F-4.3°C -13.3°F-25.2°C 18% Calm Calm -- 30.31 in1026.4 mb 0.00 in0.0 mm 0.00 in0.0 mm 0.00 in0.0 mm
10:32 PM 23.9°F-4.5°C -13.6°F-25.3°C 18% 0.6 mph N1.0 kmh N 2.8 mph4.5 kmh 30.32 in1026.8 mb 0.00 in0.0 mm 0.00 in0.0 mm 0.00 in0.0 mm
10:47 PM 23.7°F-4.6°C -13.7°F-25.4°C 18% 0.6 mph N1.0 kmh N 2.8 mph4.5 kmh 30.31 in1026.4 mb 0.00 in0.0 mm 0.00 in0.0 mm 0.00 in0.0 mm
11:02 PM 23.7°F-4.6°C -13.7°F-25.4°C 18% 1.4 mph N2.3 kmh N 4.0 mph6.4 kmh 30.31 in1026.4 mb 0.00 in0.0 mm 0.00 in0.0 mm 0.00 in0.0 mm
11:17 PM 23.5°F-4.7°C -13.9°F-25.5°C 18% 0.6 mph N1.0 kmh N 2.0 mph3.2 kmh 30.31 in1026.4 mb 0.00 in0.0 mm 0.00 in0.0 mm 0.00 in0.0 mm
11:32 PM 23.5°F-4.7°C -13.9°F-25.5°C 18% 0.6 mph N1.0 kmh N 2.0 mph3.2 kmh 30.32 in1026.8 mb 0.00 in0.0 mm 0.00 in0.0 mm 0.00 in0.0 mm
11:47 PM 23.5°F-4.7°C -13.9°F-25.5°C 18% 0.6 mph N1.0 kmh N 2.8 mph4.5 kmh 30.31 in1026.4 mb 0.00 in0.0 mm 0.00 in0.0 mm 0.00 in0.0 mm